sensor_id;sensor_type;location;lat;lon;timestamp;pressure;altitude;pressure_sealevel;temperature;humidity
68656;BME280;55638;51.122;13.606;2023-08-06T00:00:21;99345.00;;;15.14;60.71
68656;BME280;55638;51.122;13.606;2023-08-06T00:01:53;99343.97;;;15.15;60.17
68656;BME280;55638;51.122;13.606;2023-08-06T00:03:25;99346.66;;;15.15;60.14
68656;BME280;55638;51.122;13.606;2023-08-06T00:04:57;99347.53;;;15.15;60.11
68656;BME280;55638;51.122;13.606;2023-08-06T00:06:29;99340.59;;;15.13;60.55
68656;BME280;55638;51.122;13.606;2023-08-06T00:08:01;99340.59;;;15.13;60.20
68656;BME280;55638;51.122;13.606;2023-08-06T00:09:34;99330.78;;;15.12;60.31
68656;BME280;55638;51.122;13.606;2023-08-06T00:11:06;99327.19;;;15.11;60.23
68656;BME280;55638;51.122;13.606;2023-08-06T00:12:37;99320.91;;;15.11;60.45
68656;BME280;55638;51.122;13.606;2023-08-06T00:14:09;99321.94;;;15.10;60.41
68656;BME280;55638;51.122;13.606;2023-08-06T00:15:41;99322.97;;;15.08;60.55
68656;BME280;55638;51.122;13.606;2023-08-06T00:17:13;99321.94;;;15.10;60.25
68656;BME280;55638;51.122;13.606;2023-08-06T00:18:45;99315.19;;;15.05;60.63
68656;BME280;55638;51.122;13.606;2023-08-06T00:20:17;99315.38;;;15.04;60.44
68656;BME280;55638;51.122;13.606;2023-08-06T00:21:49;99314.53;;;15.03;60.46
68656;BME280;55638;51.122;13.606;2023-08-06T00:23:21;99312.84;;;15.02;60.72
68656;BME280;55638;51.122;13.606;2023-08-06T00:24:54;99310.97;;;15.03;60.64
68656;BME280;55638;51.122;13.606;2023-08-06T00:26:29;99309.44;;;15.00;60.40
68656;BME280;55638;51.122;13.606;2023-08-06T00:28:01;99304.03;;;15.00;60.75
68656;BME280;55638;51.122;13.606;2023-08-06T00:29:33;99301.50;;;14.99;60.44
68656;BME280;55638;51.122;13.606;2023-08-06T00:31:04;99301.50;;;14.99;60.36
68656;BME280;55638;51.122;13.606;2023-08-06T00:32:37;99303.53;;;14.97;60.77
68656;BME280;55638;51.122;13.606;2023-08-06T00:34:09;99299.16;;;14.96;60.65
68656;BME280;55638;51.122;13.606;2023-08-06T00:35:41;99293.88;;;14.94;60.50
68656;BME280;55638;51.122;13.606;2023-08-06T00:37:13;99304.72;;;14.94;60.78
68656;BME280;55638;51.122;13.606;2023-08-06T00:38:44;99296.78;;;14.93;60.73
68656;BME280;55638;51.122;13.606;2023-08-06T00:40:20;99300.50;;;14.92;61.07
68656;BME280;55638;51.122;13.606;2023-08-06T00:41:53;99299.66;;;14.91;60.81
68656;BME280;55638;51.122;13.606;2023-08-06T00:43:26;99303.41;;;14.90;60.81
68656;BME280;55638;51.122;13.606;2023-08-06T00:44:58;99292.06;;;14.87;60.81
68656;BME280;55638;51.122;13.606;2023-08-06T00:46:30;99302.06;;;14.86;61.17
68656;BME280;55638;51.122;13.606;2023-08-06T00:48:05;99294.94;;;14.85;61.22
68656;BME280;55638;51.122;13.606;2023-08-06T00:49:37;99290.53;;;14.84;61.18
68656;BME280;55638;51.122;13.606;2023-08-06T00:51:10;99280.72;;;14.83;61.29
68656;BME280;55638;51.122;13.606;2023-08-06T00:52:43;99285.13;;;14.84;61.10
68656;BME280;55638;51.122;13.606;2023-08-06T00:54:15;99288.88;;;14.83;61.42
68656;BME280;55638;51.122;13.606;2023-08-06T00:55:48;99282.75;;;14.81;61.17
68656;BME280;55638;51.122;13.606;2023-08-06T00:57:22;99284.44;;;14.82;61.41
68656;BME280;55638;51.122;13.606;2023-08-06T00:58:56;99282.75;;;14.81;61.31
68656;BME280;55638;51.122;13.606;2023-08-06T01:00:29;99280.06;;;14.81;61.40
68656;BME280;55638;51.122;13.606;2023-08-06T01:02:01;99281.09;;;14.80;61.66
68656;BME280;55638;51.122;13.606;2023-08-06T01:03:33;99280.06;;;14.81;61.62
68656;BME280;55638;51.122;13.606;2023-08-06T01:05:06;99289.22;;;14.80;61.93
68656;BME280;55638;51.122;13.606;2023-08-06T01:06:44;99282.09;;;14.79;62.21
68656;BME280;55638;51.122;13.606;2023-08-06T01:13:45;99280.06;;;14.81;62.06
68656;BME280;55638;51.122;13.606;2023-08-06T01:15:22;99283.59;;;14.81;62.25
68656;BME280;55638;51.122;13.606;2023-08-06T01:16:55;99276.31;;;14.82;61.98
68656;BME280;55638;51.122;13.606;2023-08-06T01:18:30;99279.00;;;14.82;61.78
68656;BME280;55638;51.122;13.606;2023-08-06T01:20:05;99281.72;;;14.82;62.01
68656;BME280;55638;51.122;13.606;2023-08-06T01:21:37;99289.88;;;14.82;61.94
68656;BME280;55638;51.122;13.606;2023-08-06T01:23:09;99281.72;;;14.82;62.21
68656;BME280;55638;51.122;13.606;2023-08-06T01:24:47;99278.00;;;14.83;62.65
68656;BME280;55638;51.122;13.606;2023-08-06T01:26:39;99278.84;;;14.83;62.67
68656;BME280;55638;51.122;13.606;2023-08-06T01:28:21;99276.16;;;14.83;62.50
68656;BME280;55638;51.122;13.606;2023-08-06T01:30:01;99273.25;;;14.85;62.34
68656;BME280;55638;51.122;13.606;2023-08-06T01:31:37;99272.22;;;14.86;62.39
68656;BME280;55638;51.122;13.606;2023-08-06T01:33:14;99270.38;;;14.87;62.41
68656;BME280;55638;51.122;13.606;2023-08-06T01:34:48;99267.44;;;14.88;61.93
68656;BME280;55638;51.122;13.606;2023-08-06T01:36:21;99256.59;;;14.88;61.97
68656;BME280;55638;51.122;13.606;2023-08-06T01:37:54;99260.16;;;14.89;62.24
68656;BME280;55638;51.122;13.606;2023-08-06T01:39:27;99252.00;;;14.89;62.08
68656;BME280;55638;51.122;13.606;2023-08-06T01:40:59;99251.84;;;14.90;62.11
68656;BME280;55638;51.122;13.606;2023-08-06T01:42:31;99247.47;;;14.89;62.13
68656;BME280;55638;51.122;13.606;2023-08-06T01:44:03;99249.97;;;14.91;62.59
68656;BME280;55638;51.122;13.606;2023-08-06T01:45:36;99247.25;;;14.91;62.41
68656;BME280;55638;51.122;13.606;2023-08-06T01:47:07;99239.13;;;14.91;62.55
68656;BME280;55638;51.122;13.606;2023-08-06T01:48:39;99249.63;;;14.94;62.30
68656;BME280;55638;51.122;13.606;2023-08-06T01:50:11;99247.75;;;14.94;62.55
68656;BME280;55638;51.122;13.606;2023-08-06T01:51:43;99246.06;;;14.93;62.47
68656;BME280;55638;51.122;13.606;2023-08-06T01:53:15;99245.03;;;14.94;62.71
68656;BME280;55638;51.122;13.606;2023-08-06T01:54:47;99249.44;;;14.95;62.63
68656;BME280;55638;51.122;13.606;2023-08-06T01:56:19;99243.84;;;14.97;62.54
68656;BME280;55638;51.122;13.606;2023-08-06T01:57:52;99234.66;;;14.98;62.69
68656;BME280;55638;51.122;13.606;2023-08-06T01:59:24;99240.94;;;14.98;62.87
68656;BME280;55638;51.122;13.606;2023-08-06T02:00:56;99232.63;;;15.00;62.60
68656;BME280;55638;51.122;13.606;2023-08-06T02:02:28;99229.91;;;15.00;62.50
68656;BME280;55638;51.122;13.606;2023-08-06T02:04:00;99239.56;;;15.02;62.45
68656;BME280;55638;51.122;13.606;2023-08-06T02:05:33;99234.97;;;15.03;62.71
68656;BME280;55638;51.122;13.606;2023-08-06T02:07:05;99239.56;;;15.02;62.34
68656;BME280;55638;51.122;13.606;2023-08-06T02:08:37;99244.81;;;15.04;62.65
68656;BME280;55638;51.122;13.606;2023-08-06T02:10:09;99243.97;;;15.03;62.61
68656;BME280;55638;51.122;13.606;2023-08-06T02:11:40;99240.22;;;15.04;62.26
68656;BME280;55638;51.122;13.606;2023-08-06T02:13:12;99242.09;;;15.04;62.49
68656;BME280;55638;51.122;13.606;2023-08-06T02:14:44;99236.50;;;15.05;62.25
68656;BME280;55638;51.122;13.606;2023-08-06T02:16:16;99240.22;;;15.04;62.34
68656;BME280;55638;51.122;13.606;2023-08-06T02:17:48;99237.50;;;15.04;62.26
68656;BME280;55638;51.122;13.606;2023-08-06T02:19:20;99240.22;;;15.04;62.35
68656;BME280;55638;51.122;13.606;2023-08-06T02:20:56;99248.19;;;15.06;62.96
68656;BME280;55638;51.122;13.606;2023-08-06T02:22:29;99244.81;;;15.04;62.55
68656;BME280;55638;51.122;13.606;2023-08-06T02:24:01;99242.94;;;15.04;62.69
68656;BME280;55638;51.122;13.606;2023-08-06T02:25:34;99237.50;;;15.04;62.79
68656;BME280;55638;51.122;13.606;2023-08-06T02:27:06;99232.91;;;15.05;62.48
68656;BME280;55638;51.122;13.606;2023-08-06T02:28:38;99228.50;;;15.04;62.55
68656;BME280;55638;51.122;13.606;2023-08-06T02:30:10;99226.63;;;15.04;62.66
68656;BME280;55638;51.122;13.606;2023-08-06T02:31:43;99227.47;;;15.05;62.73
68656;BME280;55638;51.122;13.606;2023-08-06T02:33:15;99225.63;;;15.05;62.71
68656;BME280;55638;51.122;13.606;2023-08-06T02:34:47;99221.22;;;15.04;62.91
68656;BME280;55638;51.122;13.606;2023-08-06T02:36:19;99223.94;;;15.04;62.90
68656;BME280;55638;51.122;13.606;2023-08-06T02:37:51;99224.75;;;15.05;62.91
68656;BME280;55638;51.122;13.606;2023-08-06T02:39:23;99219.19;;;15.06;63.00
68656;BME280;55638;51.122;13.606;2023-08-06T02:40:55;99223.75;;;15.06;62.88
68656;BME280;55638;51.122;13.606;2023-08-06T02:42:28;99229.84;;;15.08;62.61
68656;BME280;55638;51.122;13.606;2023-08-06T02:43:59;99229.84;;;15.08;62.52
68656;BME280;55638;51.122;13.606;2023-08-06T02:45:31;99220.22;;;15.05;62.74
68656;BME280;55638;51.122;13.606;2023-08-06T02:47:04;99217.50;;;15.05;62.54
68656;BME280;55638;51.122;13.606;2023-08-06T02:48:36;99214.09;;;15.03;62.70
68656;BME280;55638;51.122;13.606;2023-08-06T02:50:09;99209.53;;;15.04;63.08
68656;BME280;55638;51.122;13.606;2023-08-06T02:51:41;99204.28;;;15.02;62.86
68656;BME280;55638;51.122;13.606;2023-08-06T02:53:13;99204.28;;;15.02;63.05
68656;BME280;55638;51.122;13.606;2023-08-06T02:54:44;99201.75;;;15.01;62.81
68656;BME280;55638;51.122;13.606;2023-08-06T02:56:18;99199.03;;;15.01;62.76
68656;BME280;55638;51.122;13.606;2023-08-06T02:58:02;99198.19;;;15.00;63.11
68656;BME280;55638;51.122;13.606;2023-08-06T02:59:38;99198.38;;;14.99;63.06
68656;BME280;55638;51.122;13.606;2023-08-06T03:01:19;99200.59;;;14.95;63.33
68656;BME280;55638;51.122;13.606;2023-08-06T03:02:58;99197.50;;;14.98;63.13
68656;BME280;55638;51.122;13.606;2023-08-06T03:04:43;99196.66;;;14.98;63.11
68656;BME280;55638;51.122;13.606;2023-08-06T03:06:16;99201.25;;;14.97;63.27
68656;BME280;55638;51.122;13.606;2023-08-06T03:07:52;99196.19;;;14.94;63.67
68656;BME280;55638;51.122;13.606;2023-08-06T03:09:29;99190.75;;;14.94;63.80
68656;BME280;55638;51.122;13.606;2023-08-06T03:11:01;99190.75;;;14.94;63.69
68656;BME280;55638;51.122;13.606;2023-08-06T03:12:34;99180.94;;;14.93;64.10
68656;BME280;55638;51.122;13.606;2023-08-06T03:14:07;99176.56;;;14.92;63.71
68656;BME280;55638;51.122;13.606;2023-08-06T03:15:40;99184.50;;;14.94;63.95
68656;BME280;55638;51.122;13.606;2023-08-06T03:17:14;99178.22;;;14.93;63.86
68656;BME280;55638;51.122;13.606;2023-08-06T03:18:46;99184.50;;;14.94;64.07
68656;BME280;55638;51.122;13.606;2023-08-06T03:20:19;99178.22;;;14.93;64.11
68656;BME280;55638;51.122;13.606;2023-08-06T03:21:51;99171.97;;;14.93;64.05
68656;BME280;55638;51.122;13.606;2023-08-06T03:23:23;99171.13;;;14.92;64.38
68656;BME280;55638;51.122;13.606;2023-08-06T03:24:55;99165.72;;;14.92;64.42
68656;BME280;55638;51.122;13.606;2023-08-06T03:26:29;99163.00;;;14.92;64.20
68656;BME280;55638;51.122;13.606;2023-08-06T03:28:01;99156.69;;;14.92;64.33
68656;BME280;55638;51.122;13.606;2023-08-06T03:29:33;99161.97;;;14.93;64.29
68656;BME280;55638;51.122;13.606;2023-08-06T03:31:05;99153.97;;;14.92;64.51
68656;BME280;55638;51.122;13.606;2023-08-06T03:32:42;99152.13;;;14.92;64.22
68656;BME280;55638;51.122;13.606;2023-08-06T03:34:15;99146.72;;;14.92;64.52
68656;BME280;55638;51.122;13.606;2023-08-06T03:35:47;99147.72;;;14.91;64.39
68656;BME280;55638;51.122;13.606;2023-08-06T03:37:19;99149.41;;;14.92;64.39
68656;BME280;55638;51.122;13.606;2023-08-06T03:38:51;99147.72;;;14.91;64.55
68656;BME280;55638;51.122;13.606;2023-08-06T03:40:23;99146.03;;;14.90;64.39
68656;BME280;55638;51.122;13.606;2023-08-06T03:41:55;99146.88;;;14.91;64.54
68656;BME280;55638;51.122;13.606;2023-08-06T03:43:27;99155.22;;;14.89;64.75
68656;BME280;55638;51.122;13.606;2023-08-06T03:44:59;99146.88;;;14.91;64.88
68656;BME280;55638;51.122;13.606;2023-08-06T03:46:31;99144.34;;;14.89;64.71
68656;BME280;55638;51.122;13.606;2023-08-06T03:48:09;99135.34;;;14.89;64.58
68656;BME280;55638;51.122;13.606;2023-08-06T03:49:41;99134.50;;;14.88;64.57
68656;BME280;55638;51.122;13.606;2023-08-06T03:51:13;99132.63;;;14.89;64.68
68656;BME280;55638;51.122;13.606;2023-08-06T03:52:47;99138.94;;;14.89;64.29
68656;BME280;55638;51.122;13.606;2023-08-06T03:54:19;99140.97;;;14.87;64.37
68656;BME280;55638;51.122;13.606;2023-08-06T03:55:51;99133.88;;;14.86;64.44
68656;BME280;55638;51.122;13.606;2023-08-06T03:57:23;99137.59;;;14.85;64.90
68656;BME280;55638;51.122;13.606;2023-08-06T03:58:55;99136.75;;;14.84;64.92
68656;BME280;55638;51.122;13.606;2023-08-06T04:00:28;99136.75;;;14.84;64.73
68656;BME280;55638;51.122;13.606;2023-08-06T04:02:00;99129.66;;;14.83;64.86
68656;BME280;55638;51.122;13.606;2023-08-06T04:03:32;99130.47;;;14.84;64.92
68656;BME280;55638;51.122;13.606;2023-08-06T04:05:04;99121.66;;;14.82;64.92
68656;BME280;55638;51.122;13.606;2023-08-06T04:06:36;99126.09;;;14.83;65.30
68656;BME280;55638;51.122;13.606;2023-08-06T04:08:08;99112.53;;;14.83;65.10
68656;BME280;55638;51.122;13.606;2023-08-06T04:10:00;99118.31;;;14.80;65.47
68656;BME280;55638;51.122;13.606;2023-08-06T04:11:35;99112.31;;;14.84;65.37
68656;BME280;55638;51.122;13.606;2023-08-06T04:13:07;99106.75;;;14.86;65.49
68656;BME280;55638;51.122;13.606;2023-08-06T04:14:39;99103.16;;;14.85;65.32
68656;BME280;55638;51.122;13.606;2023-08-06T04:16:11;99097.72;;;14.85;65.10
68656;BME280;55638;51.122;13.606;2023-08-06T04:17:44;99096.72;;;14.87;65.38
68656;BME280;55638;51.122;13.606;2023-08-06T04:19:16;99090.25;;;14.88;65.09
68656;BME280;55638;51.122;13.606;2023-08-06T04:20:48;99094.00;;;14.87;65.43
68656;BME280;55638;51.122;13.606;2023-08-06T04:22:21;99088.38;;;14.88;65.40
68656;BME280;55638;51.122;13.606;2023-08-06T04:23:53;99090.25;;;14.88;65.24
68656;BME280;55638;51.122;13.606;2023-08-06T04:25:25;99090.09;;;14.89;65.10
68656;BME280;55638;51.122;13.606;2023-08-06T04:26:57;99092.81;;;14.89;65.28
68656;BME280;55638;51.122;13.606;2023-08-06T04:28:30;99093.81;;;14.88;65.12
68656;BME280;55638;51.122;13.606;2023-08-06T04:30:02;99094.66;;;14.89;65.32
68656;BME280;55638;51.122;13.606;2023-08-06T04:31:34;99091.94;;;14.89;65.46
68656;BME280;55638;51.122;13.606;2023-08-06T04:33:06;99096.34;;;14.90;65.75
68656;BME280;55638;51.122;13.606;2023-08-06T04:34:39;99090.94;;;14.90;65.51
68656;BME280;55638;51.122;13.606;2023-08-06T04:36:11;99091.78;;;14.90;65.65
68656;BME280;55638;51.122;13.606;2023-08-06T04:37:43;99088.03;;;14.91;65.89
68656;BME280;55638;51.122;13.606;2023-08-06T04:39:16;99085.97;;;14.93;66.01
68656;BME280;55638;51.122;13.606;2023-08-06T04:40:48;99087.66;;;14.94;65.97
68656;BME280;55638;51.122;13.606;2023-08-06T04:42:19;99078.47;;;14.95;66.05
68656;BME280;55638;51.122;13.606;2023-08-06T04:43:51;99080.19;;;14.96;65.92
68656;BME280;55638;51.122;13.606;2023-08-06T04:45:23;99075.59;;;14.97;66.00
68656;BME280;55638;51.122;13.606;2023-08-06T04:46:56;99079.81;;;14.99;65.97
68656;BME280;55638;51.122;13.606;2023-08-06T04:48:28;99078.78;;;15.00;65.93
68656;BME280;55638;51.122;13.606;2023-08-06T04:50:00;99081.13;;;15.03;65.99
68656;BME280;55638;51.122;13.606;2023-08-06T04:51:32;99076.75;;;15.02;66.17
68656;BME280;55638;51.122;13.606;2023-08-06T04:53:04;99078.41;;;15.03;66.09
68656;BME280;55638;51.122;13.606;2023-08-06T04:54:36;99085.34;;;15.06;65.91
68656;BME280;55638;51.122;13.606;2023-08-06T04:56:07;99078.06;;;15.06;66.04
68656;BME280;55638;51.122;13.606;2023-08-06T04:57:39;99073.28;;;15.08;65.88
68656;BME280;55638;51.122;13.606;2023-08-06T04:59:11;99074.13;;;15.09;66.11
68656;BME280;55638;51.122;13.606;2023-08-06T05:00:43;99069.53;;;15.10;65.74
68656;BME280;55638;51.122;13.606;2023-08-06T05:02:15;99077.50;;;15.11;65.97
68656;BME280;55638;51.122;13.606;2023-08-06T05:03:47;99067.50;;;15.12;65.74
68656;BME280;55638;51.122;13.606;2023-08-06T05:05:19;99069.19;;;15.13;65.83
68656;BME280;55638;51.122;13.606;2023-08-06T05:06:51;99070.84;;;15.14;65.81
68656;BME280;55638;51.122;13.606;2023-08-06T05:08:23;99072.53;;;15.15;65.80
68656;BME280;55638;51.122;13.606;2023-08-06T05:09:55;99065.25;;;15.15;65.86
68656;BME280;55638;51.122;13.606;2023-08-06T05:11:27;99066.09;;;15.16;66.21
68656;BME280;55638;51.122;13.606;2023-08-06T05:12:59;99070.47;;;15.17;66.25
68656;BME280;55638;51.122;13.606;2023-08-06T05:14:30;99069.28;;;15.19;66.08
68656;BME280;55638;51.122;13.606;2023-08-06T05:16:02;99063.84;;;15.19;65.98
68656;BME280;55638;51.122;13.606;2023-08-06T05:17:35;99060.94;;;15.21;66.37
68656;BME280;55638;51.122;13.606;2023-08-06T05:19:07;99059.94;;;15.22;66.31
68656;BME280;55638;51.122;13.606;2023-08-06T05:20:40;99058.88;;;15.23;66.27
68656;BME280;55638;51.122;13.606;2023-08-06T05:22:13;99053.47;;;15.23;66.06
68656;BME280;55638;51.122;13.606;2023-08-06T05:23:44;99059.56;;;15.25;66.45
68656;BME280;55638;51.122;13.606;2023-08-06T05:25:16;99060.19;;;15.27;66.54
68656;BME280;55638;51.122;13.606;2023-08-06T05:26:48;99058.16;;;15.29;66.17
68656;BME280;55638;51.122;13.606;2023-08-06T05:28:20;99059.81;;;15.30;66.41
68656;BME280;55638;51.122;13.606;2023-08-06T05:29:55;99061.13;;;15.34;66.50
68656;BME280;55638;51.122;13.606;2023-08-06T05:31:27;99058.41;;;15.34;66.35
68656;BME280;55638;51.122;13.606;2023-08-06T05:33:00;99061.78;;;15.36;66.44
68656;BME280;55638;51.122;13.606;2023-08-06T05:34:32;99057.03;;;15.38;66.36
68656;BME280;55638;51.122;13.606;2023-08-06T05:36:04;99056.81;;;15.40;66.34
68656;BME280;55638;51.122;13.606;2023-08-06T05:37:36;99052.06;;;15.42;66.51
68656;BME280;55638;51.122;13.606;2023-08-06T05:39:08;99048.13;;;15.44;66.26
68656;BME280;55638;51.122;13.606;2023-08-06T05:40:40;99048.97;;;15.45;66.62
68656;BME280;55638;51.122;13.606;2023-08-06T05:42:12;99040.47;;;15.48;66.67
68656;BME280;55638;51.122;13.606;2023-08-06T05:43:43;99037.53;;;15.49;66.70
68656;BME280;55638;51.122;13.606;2023-08-06T05:45:15;99044.31;;;15.53;66.51
68656;BME280;55638;51.122;13.606;2023-08-06T05:46:48;99042.44;;;15.54;66.18
68656;BME280;55638;51.122;13.606;2023-08-06T05:48:20;99040.38;;;15.56;66.37
68656;BME280;55638;51.122;13.606;2023-08-06T05:49:54;99036.44;;;15.59;66.27
68656;BME280;55638;51.122;13.606;2023-08-06T05:51:26;99043.56;;;15.60;66.21
68656;BME280;55638;51.122;13.606;2023-08-06T05:52:59;99043.19;;;15.63;66.23
68656;BME280;55638;51.122;13.606;2023-08-06T05:54:32;99046.56;;;15.65;66.47
68656;BME280;55638;51.122;13.606;2023-08-06T05:56:04;99055.34;;;15.67;66.16
68656;BME280;55638;51.122;13.606;2023-08-06T05:57:36;99042.41;;;15.69;66.23
68656;BME280;55638;51.122;13.606;2023-08-06T05:59:08;99051.22;;;15.71;66.54
68656;BME280;55638;51.122;13.606;2023-08-06T06:00:40;99041.00;;;15.73;66.17
68656;BME280;55638;51.122;13.606;2023-08-06T06:02:12;99050.47;;;15.77;66.27
68656;BME280;55638;51.122;13.606;2023-08-06T06:03:44;99040.25;;;15.79;66.19
68656;BME280;55638;51.122;13.606;2023-08-06T06:05:16;99047.38;;;15.80;66.18
68656;BME280;55638;51.122;13.606;2023-08-06T06:06:48;99047.00;;;15.83;66.29
68656;BME280;55638;51.122;13.606;2023-08-06T06:08:20;99044.91;;;15.85;66.35
68656;BME280;55638;51.122;13.606;2023-08-06T06:09:52;99056.25;;;15.89;66.13
68656;BME280;55638;51.122;13.606;2023-08-06T06:11:24;99050.66;;;15.90;66.30
68656;BME280;55638;51.122;13.606;2023-08-06T06:12:56;99043.13;;;15.92;66.27
68656;BME280;55638;51.122;13.606;2023-08-06T06:14:28;99036.47;;;15.95;66.33
68656;BME280;55638;51.122;13.606;2023-08-06T06:16:00;99046.13;;;15.97;66.26
68656;BME280;55638;51.122;13.606;2023-08-06T06:17:32;99034.88;;;16.00;66.36
68656;BME280;55638;51.122;13.606;2023-08-06T06:19:04;99040.94;;;16.02;66.28
68656;BME280;55638;51.122;13.606;2023-08-06T06:20:35;99038.72;;;16.06;66.05
68656;BME280;55638;51.122;13.606;2023-08-06T06:22:07;99044.59;;;16.10;65.84
68656;BME280;55638;51.122;13.606;2023-08-06T06:23:39;99036.44;;;16.10;66.04
68656;BME280;55638;51.122;13.606;2023-08-06T06:25:11;99038.78;;;16.13;65.58
68656;BME280;55638;51.122;13.606;2023-08-06T06:26:43;99033.13;;;16.14;65.33
68656;BME280;55638;51.122;13.606;2023-08-06T06:28:15;99032.97;;;16.16;65.38
68656;BME280;55638;51.122;13.606;2023-08-06T06:29:47;99038.84;;;16.19;65.62
68656;BME280;55638;51.122;13.606;2023-08-06T06:31:19;99036.97;;;16.20;65.96
68656;BME280;55638;51.122;13.606;2023-08-06T06:32:51;99039.47;;;16.21;65.86
68656;BME280;55638;51.122;13.606;2023-08-06T06:34:23;99030.94;;;16.24;65.81
68656;BME280;55638;51.122;13.606;2023-08-06T06:35:55;99033.47;;;16.26;65.57
68656;BME280;55638;51.122;13.606;2023-08-06T06:37:26;99030.38;;;16.29;65.58
68656;BME280;55638;51.122;13.606;2023-08-06T06:38:58;99031.84;;;16.32;65.63
68656;BME280;55638;51.122;13.606;2023-08-06T06:40:30;99033.34;;;16.34;65.73
68656;BME280;55638;51.122;13.606;2023-08-06T06:42:02;99032.16;;;16.37;65.87
68656;BME280;55638;51.122;13.606;2023-08-06T06:43:40;99033.44;;;16.41;65.53
68656;BME280;55638;51.122;13.606;2023-08-06T06:45:13;99037.66;;;16.43;65.67
68656;BME280;55638;51.122;13.606;2023-08-06T06:46:45;99028.25;;;16.46;65.38
68656;BME280;55638;51.122;13.606;2023-08-06T06:48:17;99026.16;;;16.48;65.39
68656;BME280;55638;51.122;13.606;2023-08-06T06:49:49;99029.38;;;16.52;65.60
68656;BME280;55638;51.122;13.606;2023-08-06T06:51:21;99030.84;;;16.54;65.33
68656;BME280;55638;51.122;13.606;2023-08-06T06:52:53;99031.50;;;16.56;65.43
68656;BME280;55638;51.122;13.606;2023-08-06T06:54:25;99035.50;;;16.60;65.66
68656;BME280;55638;51.122;13.606;2023-08-06T06:56:04;99035.31;;;16.62;65.11
68656;BME280;55638;51.122;13.606;2023-08-06T06:57:36;99037.44;;;16.66;65.54
68656;BME280;55638;51.122;13.606;2023-08-06T06:59:08;99032.84;;;16.67;65.55
68656;BME280;55638;51.122;13.606;2023-08-06T07:00:40;99044.16;;;16.70;65.02
68656;BME280;55638;51.122;13.606;2023-08-06T07:02:12;99040.03;;;16.75;65.10
68656;BME280;55638;51.122;13.606;2023-08-06T07:03:43;99040.66;;;16.77;65.25
68656;BME280;55638;51.122;13.606;2023-08-06T07:05:15;99043.19;;;16.78;65.30
68656;BME280;55638;51.122;13.606;2023-08-06T07:06:48;99050.97;;;16.81;65.33
68656;BME280;55638;51.122;13.606;2023-08-06T07:08:20;99046.16;;;16.83;65.33
68656;BME280;55638;51.122;13.606;2023-08-06T07:09:52;99055.63;;;16.87;65.09
68656;BME280;55638;51.122;13.606;2023-08-06T07:11:24;99044.53;;;16.89;64.96
68656;BME280;55638;51.122;13.606;2023-08-06T07:12:56;99049.59;;;16.92;65.24
68656;BME280;55638;51.122;13.606;2023-08-06T07:14:28;99048.34;;;16.94;65.59
68656;BME280;55638;51.122;13.606;2023-08-06T07:16:01;99047.97;;;16.98;65.31
68656;BME280;55638;51.122;13.606;2023-08-06T07:17:33;99048.41;;;17.01;65.06
68656;BME280;55638;51.122;13.606;2023-08-06T07:19:04;99048.00;;;17.04;64.98
68656;BME280;55638;51.122;13.606;2023-08-06T07:20:37;99047.63;;;17.07;64.98
68656;BME280;55638;51.122;13.606;2023-08-06T07:22:09;99048.06;;;17.11;65.15
68656;BME280;55638;51.122;13.606;2023-08-06T07:23:41;99053.09;;;17.14;64.85
68656;BME280;55638;51.122;13.606;2023-08-06T07:25:13;99051.91;;;17.16;64.91
68656;BME280;55638;51.122;13.606;2023-08-06T07:26:45;99053.38;;;17.19;64.72
68656;BME280;55638;51.122;13.606;2023-08-06T07:28:17;99053.19;;;17.21;64.72
68656;BME280;55638;51.122;13.606;2023-08-06T07:29:49;99051.94;;;17.23;64.63
68656;BME280;55638;51.122;13.606;2023-08-06T07:31:21;99050.91;;;17.24;64.63
68656;BME280;55638;51.122;13.606;2023-08-06T07:32:53;99047.13;;;17.25;63.94
68656;BME280;55638;51.122;13.606;2023-08-06T07:34:25;99047.78;;;17.27;63.90
68656;BME280;55638;51.122;13.606;2023-08-06T07:35:57;99046.72;;;17.28;64.13
68656;BME280;55638;51.122;13.606;2023-08-06T07:37:29;99055.56;;;17.30;64.06
68656;BME280;55638;51.122;13.606;2023-08-06T07:39:01;99039.22;;;17.30;63.96
68656;BME280;55638;51.122;13.606;2023-08-06T07:40:35;99048.88;;;17.33;64.30
68656;BME280;55638;51.122;13.606;2023-08-06T07:42:08;99047.00;;;17.33;63.86
68656;BME280;55638;51.122;13.606;2023-08-06T07:43:40;99046.34;;;17.31;64.09
68656;BME280;55638;51.122;13.606;2023-08-06T07:45:12;99044.25;;;17.33;63.64
68656;BME280;55638;51.122;13.606;2023-08-06T07:46:44;99051.38;;;17.34;63.36
68656;BME280;55638;51.122;13.606;2023-08-06T07:48:16;99044.03;;;17.35;63.87
68656;BME280;55638;51.122;13.606;2023-08-06T07:49:48;99040.50;;;17.34;63.64
68656;BME280;55638;51.122;13.606;2023-08-06T07:51:20;99048.00;;;17.32;63.58
68656;BME280;55638;51.122;13.606;2023-08-06T07:52:52;99050.72;;;17.32;63.51
68656;BME280;55638;51.122;13.606;2023-08-06T07:54:24;99043.63;;;17.31;63.58
68656;BME280;55638;51.122;13.606;2023-08-06T07:55:56;99048.22;;;17.31;63.46
68656;BME280;55638;51.122;13.606;2023-08-06T07:57:28;99044.66;;;17.30;63.43
68656;BME280;55638;51.122;13.606;2023-08-06T07:59:00;99040.22;;;17.29;63.25
68656;BME280;55638;51.122;13.606;2023-08-06T08:00:32;99036.88;;;17.27;63.34
68656;BME280;55638;51.122;13.606;2023-08-06T08:02:05;99037.06;;;17.26;63.71
68656;BME280;55638;51.122;13.606;2023-08-06T08:03:37;99045.25;;;17.26;63.76
68656;BME280;55638;51.122;13.606;2023-08-06T08:05:09;99040.66;;;17.26;64.00
68656;BME280;55638;51.122;13.606;2023-08-06T08:06:41;99038.97;;;17.25;63.64
68656;BME280;55638;51.122;13.606;2023-08-06T08:08:13;99037.94;;;17.26;63.61
68656;BME280;55638;51.122;13.606;2023-08-06T08:09:45;99032.50;;;17.26;63.67